sensor_id;sensor_type;location;lat;lon;timestamp;P1;durP1;ratioP1;P2;durP2;ratioP2
52268;SDS011;38224;50.950;4.100;2023-11-18T00:01:32;45.72;;;20.35;;
52268;SDS011;38224;50.950;4.100;2023-11-18T00:04:01;30.70;;;19.30;;
52268;SDS011;38224;50.950;4.100;2023-11-18T00:06:26;41.88;;;20.23;;
52268;SDS011;38224;50.950;4.100;2023-11-18T00:08:53;33.80;;;19.77;;
52268;SDS011;38224;50.950;4.100;2023-11-18T00:11:18;39.85;;;19.35;;
52268;SDS011;38224;50.950;4.100;2023-11-18T00:13:43;37.30;;;19.58;;
52268;SDS011;38224;50.950;4.100;2023-11-18T00:16:09;40.25;;;19.48;;
52268;SDS011;38224;50.950;4.100;2023-11-18T00:18:41;33.90;;;19.35;;
52268;SDS011;38224;50.950;4.100;2023-11-18T00:21:06;33.53;;;19.27;;
52268;SDS011;38224;50.950;4.100;2023-11-18T00:23:32;31.70;;;18.45;;
52268;SDS011;38224;50.950;4.100;2023-11-18T00:25:58;38.20;;;18.48;;
52268;SDS011;38224;50.950;4.100;2023-11-18T00:28:23;34.23;;;19.33;;
52268;SDS011;38224;50.950;4.100;2023-11-18T00:30:48;39.67;;;19.48;;
52268;SDS011;38224;50.950;4.100;2023-11-18T00:33:13;33.17;;;18.10;;
52268;SDS011;38224;50.950;4.100;2023-11-18T00:35:42;33.47;;;18.03;;
52268;SDS011;38224;50.950;4.100;2023-11-18T00:38:07;35.15;;;18.33;;
52268;SDS011;38224;50.950;4.100;2023-11-18T00:40:32;32.35;;;18.42;;
52268;SDS011;38224;50.950;4.100;2023-11-18T00:42:58;38.15;;;18.50;;
52268;SDS011;38224;50.950;4.100;2023-11-18T00:45:23;37.97;;;17.73;;
52268;SDS011;38224;50.950;4.100;2023-11-18T00:47:52;38.38;;;19.13;;
52268;SDS011;38224;50.950;4.100;2023-11-18T00:50:17;41.95;;;19.17;;
52268;SDS011;38224;50.950;4.100;2023-11-18T00:52:42;33.90;;;18.98;;
52268;SDS011;38224;50.950;4.100;2023-11-18T00:55:08;31.33;;;18.25;;
52268;SDS011;38224;50.950;4.100;2023-11-18T00:57:34;39.17;;;17.65;;
52268;SDS011;38224;50.950;4.100;2023-11-18T00:59:59;36.95;;;18.35;;
52268;SDS011;38224;50.950;4.100;2023-11-18T01:02:25;43.17;;;17.43;;
52268;SDS011;38224;50.950;4.100;2023-11-18T01:04:50;27.95;;;16.52;;
52268;SDS011;38224;50.950;4.100;2023-11-18T01:07:16;33.75;;;18.08;;
52268;SDS011;38224;50.950;4.100;2023-11-18T01:09:41;36.70;;;17.67;;
52268;SDS011;38224;50.950;4.100;2023-11-18T01:12:07;33.53;;;17.08;;
52268;SDS011;38224;50.950;4.100;2023-11-18T01:14:37;45.58;;;16.83;;
52268;SDS011;38224;50.950;4.100;2023-11-18T01:17:03;39.42;;;18.35;;
52268;SDS011;38224;50.950;4.100;2023-11-18T01:19:29;32.50;;;15.77;;
52268;SDS011;38224;50.950;4.100;2023-11-18T01:21:54;32.03;;;16.43;;
52268;SDS011;38224;50.950;4.100;2023-11-18T01:24:20;32.95;;;16.13;;
52268;SDS011;38224;50.950;4.100;2023-11-18T01:26:46;33.70;;;15.10;;
52268;SDS011;38224;50.950;4.100;2023-11-18T01:29:12;37.00;;;15.40;;
52268;SDS011;38224;50.950;4.100;2023-11-18T01:31:38;31.95;;;14.23;;
52268;SDS011;38224;50.950;4.100;2023-11-18T01:34:06;27.92;;;15.60;;
52268;SDS011;38224;50.950;4.100;2023-11-18T01:36:32;37.53;;;16.25;;
52268;SDS011;38224;50.950;4.100;2023-11-18T01:38:58;32.47;;;14.23;;
52268;SDS011;38224;50.950;4.100;2023-11-18T01:41:23;37.08;;;14.73;;
52268;SDS011;38224;50.950;4.100;2023-11-18T01:43:48;25.37;;;13.83;;
52268;SDS011;38224;50.950;4.100;2023-11-18T01:46:13;27.05;;;13.70;;
52268;SDS011;38224;50.950;4.100;2023-11-18T01:48:41;29.55;;;14.38;;
52268;SDS011;38224;50.950;4.100;2023-11-18T01:51:07;34.17;;;15.07;;
52268;SDS011;38224;50.950;4.100;2023-11-18T01:53:37;31.77;;;15.75;;
52268;SDS011;38224;50.950;4.100;2023-11-18T01:56:05;31.80;;;14.73;;
52268;SDS011;38224;50.950;4.100;2023-11-18T01:58:31;30.40;;;13.10;;
52268;SDS011;38224;50.950;4.100;2023-11-18T02:00:57;30.73;;;14.40;;
52268;SDS011;38224;50.950;4.100;2023-11-18T02:03:23;24.77;;;12.65;;
52268;SDS011;38224;50.950;4.100;2023-11-18T02:05:48;35.37;;;14.77;;
52268;SDS011;38224;50.950;4.100;2023-11-18T02:08:13;23.35;;;13.57;;
52268;SDS011;38224;50.950;4.100;2023-11-18T02:10:49;26.33;;;12.27;;
52268;SDS011;38224;50.950;4.100;2023-11-18T02:13:23;27.83;;;11.88;;
52268;SDS011;38224;50.950;4.100;2023-11-18T02:15:52;30.48;;;12.20;;
52268;SDS011;38224;50.950;4.100;2023-11-18T02:18:18;23.13;;;12.27;;
52268;SDS011;38224;50.950;4.100;2023-11-18T02:20:44;24.60;;;10.95;;
52268;SDS011;38224;50.950;4.100;2023-11-18T02:23:09;25.80;;;11.25;;
52268;SDS011;38224;50.950;4.100;2023-11-18T02:28:05;30.33;;;11.65;;
52268;SDS011;38224;50.950;4.100;2023-11-18T02:30:30;24.27;;;11.00;;
52268;SDS011;38224;50.950;4.100;2023-11-18T02:33:07;29.07;;;11.13;;
52268;SDS011;38224;50.950;4.100;2023-11-18T02:38:04;24.58;;;9.75;;
52268;SDS011;38224;50.950;4.100;2023-11-18T02:40:34;25.75;;;10.57;;
52268;SDS011;38224;50.950;4.100;2023-11-18T02:43:00;21.65;;;11.45;;
52268;SDS011;38224;50.950;4.100;2023-11-18T02:45:26;22.23;;;10.90;;
52268;SDS011;38224;50.950;4.100;2023-11-18T02:47:52;31.02;;;11.65;;
52268;SDS011;38224;50.950;4.100;2023-11-18T02:50:22;27.48;;;11.02;;
52268;SDS011;38224;50.950;4.100;2023-11-18T02:52:47;20.52;;;10.88;;
52268;SDS011;38224;50.950;4.100;2023-11-18T02:55:13;27.90;;;11.45;;
52268;SDS011;38224;50.950;4.100;2023-11-18T02:57:39;22.73;;;10.27;;
52268;SDS011;38224;50.950;4.100;2023-11-18T03:00:05;30.20;;;11.07;;
52268;SDS011;38224;50.950;4.100;2023-11-18T03:02:36;28.17;;;11.23;;
52268;SDS011;38224;50.950;4.100;2023-11-18T03:05:05;26.70;;;11.43;;
52268;SDS011;38224;50.950;4.100;2023-11-18T03:07:30;20.13;;;9.70;;
52268;SDS011;38224;50.950;4.100;2023-11-18T03:09:56;29.65;;;10.57;;
52268;SDS011;38224;50.950;4.100;2023-11-18T03:12:22;26.13;;;10.40;;
52268;SDS011;38224;50.950;4.100;2023-11-18T03:14:47;31.83;;;10.85;;
52268;SDS011;38224;50.950;4.100;2023-11-18T03:17:13;31.27;;;10.70;;
52268;SDS011;38224;50.950;4.100;2023-11-18T03:19:41;25.55;;;9.77;;
52268;SDS011;38224;50.950;4.100;2023-11-18T03:22:09;26.73;;;10.23;;
52268;SDS011;38224;50.950;4.100;2023-11-18T03:24:34;24.97;;;9.27;;
52268;SDS011;38224;50.950;4.100;2023-11-18T03:26:59;21.40;;;8.10;;
52268;SDS011;38224;50.950;4.100;2023-11-18T03:29:25;28.48;;;8.73;;
52268;SDS011;38224;50.950;4.100;2023-11-18T03:31:50;20.90;;;8.03;;
52268;SDS011;38224;50.950;4.100;2023-11-18T03:34:16;24.70;;;8.13;;
52268;SDS011;38224;50.950;4.100;2023-11-18T03:36:44;22.48;;;7.97;;
52268;SDS011;38224;50.950;4.100;2023-11-18T03:39:09;27.13;;;8.40;;
52268;SDS011;38224;50.950;4.100;2023-11-18T03:41:36;26.08;;;8.85;;
52268;SDS011;38224;50.950;4.100;2023-11-18T03:44:03;24.88;;;9.15;;
52268;SDS011;38224;50.950;4.100;2023-11-18T03:46:28;24.88;;;7.82;;
52268;SDS011;38224;50.950;4.100;2023-11-18T03:48:59;29.98;;;9.27;;
52268;SDS011;38224;50.950;4.100;2023-11-18T03:51:24;28.38;;;9.38;;
52268;SDS011;38224;50.950;4.100;2023-11-18T03:53:49;34.05;;;9.27;;
52268;SDS011;38224;50.950;4.100;2023-11-18T03:56:18;27.27;;;8.68;;
52268;SDS011;38224;50.950;4.100;2023-11-18T03:58:44;21.95;;;8.60;;
52268;SDS011;38224;50.950;4.100;2023-11-18T04:01:09;33.17;;;8.48;;
52268;SDS011;38224;50.950;4.100;2023-11-18T04:03:36;30.67;;;9.82;;
52268;SDS011;38224;50.950;4.100;2023-11-18T04:06:01;30.88;;;8.95;;
52268;SDS011;38224;50.950;4.100;2023-11-18T04:08:28;30.95;;;9.38;;
52268;SDS011;38224;50.950;4.100;2023-11-18T04:10:53;36.00;;;9.85;;
52268;SDS011;38224;50.950;4.100;2023-11-18T04:13:19;34.92;;;10.07;;
52268;SDS011;38224;50.950;4.100;2023-11-18T04:15:44;34.38;;;10.40;;
52268;SDS011;38224;50.950;4.100;2023-11-18T04:18:10;32.30;;;10.73;;
52268;SDS011;38224;50.950;4.100;2023-11-18T04:20:35;42.78;;;10.73;;
52268;SDS011;38224;50.950;4.100;2023-11-18T04:23:01;34.47;;;10.45;;
52268;SDS011;38224;50.950;4.100;2023-11-18T04:25:27;39.22;;;10.75;;
52268;SDS011;38224;50.950;4.100;2023-11-18T04:27:52;29.00;;;8.55;;
52268;SDS011;38224;50.950;4.100;2023-11-18T04:30:21;38.03;;;9.60;;
52268;SDS011;38224;50.950;4.100;2023-11-18T04:32:51;41.40;;;10.77;;
52268;SDS011;38224;50.950;4.100;2023-11-18T04:35:17;31.67;;;8.82;;
52268;SDS011;38224;50.950;4.100;2023-11-18T04:37:42;31.90;;;6.87;;
52268;SDS011;38224;50.950;4.100;2023-11-18T04:40:08;23.35;;;5.82;;
52268;SDS011;38224;50.950;4.100;2023-11-18T04:42:34;25.42;;;6.05;;
52268;SDS011;38224;50.950;4.100;2023-11-18T04:45:00;26.17;;;6.38;;
52268;SDS011;38224;50.950;4.100;2023-11-18T04:47:25;19.35;;;4.30;;
52268;SDS011;38224;50.950;4.100;2023-11-18T04:49:52;20.38;;;4.20;;
52268;SDS011;38224;50.950;4.100;2023-11-18T04:52:17;12.50;;;3.80;;
52268;SDS011;38224;50.950;4.100;2023-11-18T04:54:42;12.10;;;3.35;;
52268;SDS011;38224;50.950;4.100;2023-11-18T04:57:08;19.15;;;4.15;;
52268;SDS011;38224;50.950;4.100;2023-11-18T04:59:34;18.58;;;3.03;;
52268;SDS011;38224;50.950;4.100;2023-11-18T05:01:59;12.25;;;3.22;;
52268;SDS011;38224;50.950;4.100;2023-11-18T05:04:24;13.25;;;3.42;;
52268;SDS011;38224;50.950;4.100;2023-11-18T05:06:50;19.15;;;3.45;;
52268;SDS011;38224;50.950;4.100;2023-11-18T05:09:16;14.93;;;3.40;;
52268;SDS011;38224;50.950;4.100;2023-11-18T05:11:43;11.75;;;3.17;;
52268;SDS011;38224;50.950;4.100;2023-11-18T05:14:09;11.52;;;3.40;;
52268;SDS011;38224;50.950;4.100;2023-11-18T05:16:36;18.45;;;4.13;;
52268;SDS011;38224;50.950;4.100;2023-11-18T05:19:01;8.38;;;2.85;;
52268;SDS011;38224;50.950;4.100;2023-11-18T05:21:26;14.90;;;2.97;;
52268;SDS011;38224;50.950;4.100;2023-11-18T05:23:52;13.07;;;3.58;;
52268;SDS011;38224;50.950;4.100;2023-11-18T05:26:17;16.35;;;4.25;;
52268;SDS011;38224;50.950;4.100;2023-11-18T05:28:43;10.68;;;2.65;;
52268;SDS011;38224;50.950;4.100;2023-11-18T05:31:10;9.10;;;2.75;;
52268;SDS011;38224;50.950;4.100;2023-11-18T05:33:35;13.35;;;2.97;;
52268;SDS011;38224;50.950;4.100;2023-11-18T05:36:00;9.90;;;2.80;;
52268;SDS011;38224;50.950;4.100;2023-11-18T05:38:26;10.77;;;2.95;;
52268;SDS011;38224;50.950;4.100;2023-11-18T05:40:53;12.88;;;2.90;;
52268;SDS011;38224;50.950;4.100;2023-11-18T05:43:28;10.18;;;2.92;;
52268;SDS011;38224;50.950;4.100;2023-11-18T05:45:55;17.02;;;3.75;;
52268;SDS011;38224;50.950;4.100;2023-11-18T05:48:53;14.55;;;3.00;;
52268;SDS011;38224;50.950;4.100;2023-11-18T05:51:28;9.07;;;3.08;;
52268;SDS011;38224;50.950;4.100;2023-11-18T05:53:54;14.32;;;3.10;;
52268;SDS011;38224;50.950;4.100;2023-11-18T05:56:20;15.18;;;3.08;;
52268;SDS011;38224;50.950;4.100;2023-11-18T05:58:50;15.73;;;3.05;;
52268;SDS011;38224;50.950;4.100;2023-11-18T06:01:15;20.55;;;4.28;;
52268;SDS011;38224;50.950;4.100;2023-11-18T06:03:42;20.10;;;2.80;;
52268;SDS011;38224;50.950;4.100;2023-11-18T06:06:08;10.75;;;3.70;;
52268;SDS011;38224;50.950;4.100;2023-11-18T06:08:34;15.70;;;3.05;;
52268;SDS011;38224;50.950;4.100;2023-11-18T06:10:59;19.85;;;3.00;;
52268;SDS011;38224;50.950;4.100;2023-11-18T06:13:24;10.15;;;3.63;;
52268;SDS011;38224;50.950;4.100;2023-11-18T06:15:52;8.48;;;2.65;;
52268;SDS011;38224;50.950;4.100;2023-11-18T06:18:18;16.98;;;3.05;;
52268;SDS011;38224;50.950;4.100;2023-11-18T06:20:44;14.20;;;2.95;;
52268;SDS011;38224;50.950;4.100;2023-11-18T06:23:09;11.93;;;2.87;;
52268;SDS011;38224;50.950;4.100;2023-11-18T06:25:35;13.95;;;3.20;;
52268;SDS011;38224;50.950;4.100;2023-11-18T06:28:00;21.60;;;4.28;;
52268;SDS011;38224;50.950;4.100;2023-11-18T06:30:25;17.10;;;3.40;;
52268;SDS011;38224;50.950;4.100;2023-11-18T06:32:51;15.48;;;3.40;;
52268;SDS011;38224;50.950;4.100;2023-11-18T06:35:16;14.60;;;3.53;;
52268;SDS011;38224;50.950;4.100;2023-11-18T06:37:41;16.10;;;3.87;;
52268;SDS011;38224;50.950;4.100;2023-11-18T06:40:08;15.25;;;3.33;;
52268;SDS011;38224;50.950;4.100;2023-11-18T06:42:41;23.80;;;5.05;;
52268;SDS011;38224;50.950;4.100;2023-11-18T06:45:07;19.98;;;4.75;;
52268;SDS011;38224;50.950;4.100;2023-11-18T06:47:34;17.88;;;3.45;;
52268;SDS011;38224;50.950;4.100;2023-11-18T06:50:01;16.55;;;4.03;;
52268;SDS011;38224;50.950;4.100;2023-11-18T06:52:26;16.27;;;3.78;;
52268;SDS011;38224;50.950;4.100;2023-11-18T06:54:54;17.13;;;3.95;;
52268;SDS011;38224;50.950;4.100;2023-11-18T06:57:20;21.65;;;3.92;;
52268;SDS011;38224;50.950;4.100;2023-11-18T06:59:46;20.33;;;3.88;;
52268;SDS011;38224;50.950;4.100;2023-11-18T07:02:12;23.38;;;4.03;;
52268;SDS011;38224;50.950;4.100;2023-11-18T07:04:37;14.53;;;3.60;;
52268;SDS011;38224;50.950;4.100;2023-11-18T07:07:03;16.02;;;2.90;;
52268;SDS011;38224;50.950;4.100;2023-11-18T07:09:28;12.25;;;3.67;;
52268;SDS011;38224;50.950;4.100;2023-11-18T07:11:54;13.85;;;3.65;;
52268;SDS011;38224;50.950;4.100;2023-11-18T07:14:21;15.00;;;3.45;;
52268;SDS011;38224;50.950;4.100;2023-11-18T07:16:46;15.97;;;3.43;;
52268;SDS011;38224;50.950;4.100;2023-11-18T07:19:11;13.90;;;3.50;;
52268;SDS011;38224;50.950;4.100;2023-11-18T07:21:44;19.08;;;5.03;;
52268;SDS011;38224;50.950;4.100;2023-11-18T07:24:09;16.10;;;3.73;;
52268;SDS011;38224;50.950;4.100;2023-11-18T07:26:35;12.17;;;4.17;;
52268;SDS011;38224;50.950;4.100;2023-11-18T07:29:00;11.75;;;3.97;;
52268;SDS011;38224;50.950;4.100;2023-11-18T07:31:26;20.92;;;4.78;;
52268;SDS011;38224;50.950;4.100;2023-11-18T07:33:51;21.93;;;4.13;;
52268;SDS011;38224;50.950;4.100;2023-11-18T07:36:17;14.18;;;4.35;;
52268;SDS011;38224;50.950;4.100;2023-11-18T07:38:45;15.20;;;4.45;;
52268;SDS011;38224;50.950;4.100;2023-11-18T07:41:10;12.60;;;4.05;;
52268;SDS011;38224;50.950;4.100;2023-11-18T07:43:48;19.35;;;5.07;;
52268;SDS011;38224;50.950;4.100;2023-11-18T07:46:13;18.33;;;3.90;;
52268;SDS011;38224;50.950;4.100;2023-11-18T07:48:39;20.08;;;5.03;;
52268;SDS011;38224;50.950;4.100;2023-11-18T07:51:04;16.58;;;4.38;;
52268;SDS011;38224;50.950;4.100;2023-11-18T07:53:30;14.80;;;3.75;;
52268;SDS011;38224;50.950;4.100;2023-11-18T07:55:55;17.30;;;4.78;;
52268;SDS011;38224;50.950;4.100;2023-11-18T07:58:20;24.77;;;5.00;;
52268;SDS011;38224;50.950;4.100;2023-11-18T08:00:48;16.65;;;4.57;;
52268;SDS011;38224;50.950;4.100;2023-11-18T08:03:14;17.10;;;5.25;;
52268;SDS011;38224;50.950;4.100;2023-11-18T08:05:44;18.83;;;6.55;;
52268;SDS011;38224;50.950;4.100;2023-11-18T08:08:12;16.55;;;5.50;;
52268;SDS011;38224;50.950;4.100;2023-11-18T08:10:38;17.10;;;5.25;;
52268;SDS011;38224;50.950;4.100;2023-11-18T08:13:07;13.05;;;5.93;;
52268;SDS011;38224;50.950;4.100;2023-11-18T08:15:39;24.77;;;5.93;;
52268;SDS011;38224;50.950;4.100;2023-11-18T08:18:04;18.88;;;6.25;;
52268;SDS011;38224;50.950;4.100;2023-11-18T08:20:30;16.67;;;6.20;;
52268;SDS011;38224;50.950;4.100;2023-11-18T08:22:55;15.32;;;6.30;;
52268;SDS011;38224;50.950;4.100;2023-11-18T08:25:20;16.70;;;6.67;;
52268;SDS011;38224;50.950;4.100;2023-11-18T08:27:46;19.27;;;6.30;;
52268;SDS011;38224;50.950;4.100;2023-11-18T08:30:15;23.17;;;6.65;;
52268;SDS011;38224;50.950;4.100;2023-11-18T08:32:43;24.92;;;7.07;;
52268;SDS011;38224;50.950;4.100;2023-11-18T08:35:12;19.02;;;6.63;;
52268;SDS011;38224;50.950;4.100;2023-11-18T08:37:43;22.58;;;8.00;;
52268;SDS011;38224;50.950;4.100;2023-11-18T08:40:10;23.15;;;6.88;;
52268;SDS011;38224;50.950;4.100;2023-11-18T08:42:56;25.65;;;8.13;;
52268;SDS011;38224;50.950;4.100;2023-11-18T08:45:24;16.55;;;8.00;;
52268;SDS011;38224;50.950;4.100;2023-11-18T08:47:54;17.35;;;7.78;;
52268;SDS011;38224;50.950;4.100;2023-11-18T08:50:20;20.92;;;8.93;;
52268;SDS011;38224;50.950;4.100;2023-11-18T08:52:49;25.08;;;9.02;;
52268;SDS011;38224;50.950;4.100;2023-11-18T08:55:17;19.35;;;7.85;;
52268;SDS011;38224;50.950;4.100;2023-11-18T08:57:49;29.83;;;7.80;;
52268;SDS011;38224;50.950;4.100;2023-11-18T09:00:23;17.55;;;7.47;;
52268;SDS011;38224;50.950;4.100;2023-11-18T09:03:07;17.20;;;6.57;;
52268;SDS011;38224;50.950;4.100;2023-11-18T09:05:32;19.17;;;7.20;;
52268;SDS011;38224;50.950;4.100;2023-11-18T09:07:58;22.15;;;8.32;;
52268;SDS011;38224;50.950;4.100;2023-11-18T09:10:25;21.15;;;7.53;;
52268;SDS011;38224;50.950;4.100;2023-11-18T09:12:51;19.88;;;7.47;;
52268;SDS011;38224;50.950;4.100;2023-11-18T09:15:18;20.33;;;7.78;;
52268;SDS011;38224;50.950;4.100;2023-11-18T09:17:47;17.42;;;7.45;;
52268;SDS011;38224;50.950;4.100;2023-11-18T09:20:13;21.67;;;7.75;;
52268;SDS011;38224;50.950;4.100;2023-11-18T09:22:39;18.42;;;7.22;;
52268;SDS011;38224;50.950;4.100;2023-11-18T09:25:04;12.57;;;7.00;;
52268;SDS011;38224;50.950;4.100;2023-11-18T09:27:34;21.98;;;7.43;;
52268;SDS011;38224;50.950;4.100;2023-11-18T09:29:59;21.08;;;7.80;;
52268;SDS011;38224;50.950;4.100;2023-11-18T09:32:25;18.80;;;7.43;;
52268;SDS011;38224;50.950;4.100;2023-11-18T09:34:51;15.63;;;8.23;;
52268;SDS011;38224;50.950;4.100;2023-11-18T09:37:18;22.25;;;7.57;;
52268;SDS011;38224;50.950;4.100;2023-11-18T09:39:43;16.98;;;7.43;;
52268;SDS011;38224;50.950;4.100;2023-11-18T09:42:12;22.55;;;7.07;;
52268;SDS011;38224;50.950;4.100;2023-11-18T09:44:39;15.38;;;7.68;;
52268;SDS011;38224;50.950;4.100;2023-11-18T09:47:07;14.77;;;7.63;;
52268;SDS011;38224;50.950;4.100;2023-11-18T09:49:36;16.10;;;8.15;;
52268;SDS011;38224;50.950;4.100;2023-11-18T09:52:05;15.27;;;7.15;;
52268;SDS011;38224;50.950;4.100;2023-11-18T09:54:33;16.17;;;7.85;;
52268;SDS011;38224;50.950;4.100;2023-11-18T09:57:17;16.58;;;7.93;;
52268;SDS011;38224;50.950;4.100;2023-11-18T10:02:23;15.23;;;7.95;;
52268;SDS011;38224;50.950;4.100;2023-11-18T10:04:49;20.00;;;9.20;;
52268;SDS011;38224;50.950;4.100;2023-11-18T10:07:23;14.73;;;7.40;;
52268;SDS011;38224;50.950;4.100;2023-11-18T10:09:52;22.48;;;8.70;;
52268;SDS011;38224;50.950;4.100;2023-11-18T10:12:22;13.98;;;8.65;;
52268;SDS011;38224;50.950;4.100;2023-11-18T10:14:48;20.35;;;8.43;;
52268;SDS011;38224;50.950;4.100;2023-11-18T10:17:17;14.60;;;8.85;;
52268;SDS011;38224;50.950;4.100;2023-11-18T10:19:52;12.80;;;7.97;;
52268;SDS011;38224;50.950;4.100;2023-11-18T10:22:24;22.88;;;9.10;;
52268;SDS011;38224;50.950;4.100;2023-11-18T10:24:51;14.60;;;8.75;;
52268;SDS011;38224;50.950;4.100;2023-11-18T10:27:28;18.40;;;9.57;;
52268;SDS011;38224;50.950;4.100;2023-11-18T10:30:03;17.23;;;8.05;;
52268;SDS011;38224;50.950;4.100;2023-11-18T10:32:29;18.77;;;8.23;;
52268;SDS011;38224;50.950;4.100;2023-11-18T10:34:55;16.08;;;7.60;;
52268;SDS011;38224;50.950;4.100;2023-11-18T10:37:21;15.55;;;8.35;;
52268;SDS011;38224;50.950;4.100;2023-11-18T10:39:49;22.35;;;8.82;;
52268;SDS011;38224;50.950;4.100;2023-11-18T10:42:17;12.55;;;8.13;;
52268;SDS011;38224;50.950;4.100;2023-11-18T10:44:59;16.92;;;7.63;;
52268;SDS011;38224;50.950;4.100;2023-11-18T10:47:27;14.00;;;7.75;;
52268;SDS011;38224;50.950;4.100;2023-11-18T10:49:54;13.93;;;7.55;;
52268;SDS011;38224;50.950;4.100;2023-11-18T10:52:21;11.98;;;5.88;;
52268;SDS011;38224;50.950;4.100;2023-11-18T10:54:51;13.07;;;6.88;;
52268;SDS011;38224;50.950;4.100;2023-11-18T10:57:19;9.10;;;6.03;;
52268;SDS011;38224;50.950;4.100;2023-11-18T11:00:01;13.18;;;6.18;;
52268;SDS011;38224;50.950;4.100;2023-11-18T11:02:31;10.85;;;5.57;;
52268;SDS011;38224;50.950;4.100;2023-11-18T11:05:01;12.17;;;5.80;;
52268;SDS011;38224;50.950;4.100;2023-11-18T11:07:27;7.45;;;4.20;;
52268;SDS011;38224;50.950;4.100;2023-11-18T11:09:53;11.38;;;5.90;;
52268;SDS011;38224;50.950;4.100;2023-11-18T11:12:21;9.52;;;5.10;;
52268;SDS011;38224;50.950;4.100;2023-11-18T11:14:59;9.02;;;5.13;;
52268;SDS011;38224;50.950;4.100;2023-11-18T11:17:24;10.02;;;4.78;;
52268;SDS011;38224;50.950;4.100;2023-11-18T11:20:04;7.10;;;4.10;;
52268;SDS011;38224;50.950;4.100;2023-11-18T11:25:17;10.53;;;3.67;;
52268;SDS011;38224;50.950;4.100;2023-11-18T11:30:29;8.18;;;3.58;;
52268;SDS011;38224;50.950;4.100;2023-11-18T11:33:02;9.70;;;3.20;;
52268;SDS011;38224;50.950;4.100;2023-11-18T11:35:30;6.00;;;2.88;;
52268;SDS011;38224;50.950;4.100;2023-11-18T11:37:57;6.72;;;3.20;;
52268;SDS011;38224;50.950;4.100;2023-11-18T11:40:32;6.28;;;3.05;;
52268;SDS011;38224;50.950;4.100;2023-11-18T11:42:59;6.45;;;2.95;;
52268;SDS011;38224;50.950;4.100;2023-11-18T11:45:26;4.43;;;2.58;;
52268;SDS011;38224;50.950;4.100;2023-11-18T11:47:56;3.08;;;2.50;;
52268;SDS011;38224;50.950;4.100;2023-11-18T11:53:39;5.88;;;2.13;;
52268;SDS011;38224;50.950;4.100;2023-11-18T11:56:10;4.35;;;2.67;;
52268;SDS011;38224;50.950;4.100;2023-11-18T11:58:38;3.53;;;2.50;;
52268;SDS011;38224;50.950;4.100;2023-11-18T12:01:27;8.13;;;2.83;;
52268;SDS011;38224;50.950;4.100;2023-11-18T12:03:59;6.43;;;2.58;;
52268;SDS011;38224;50.950;4.100;2023-11-18T12:06:29;5.85;;;2.58;;
52268;SDS011;38224;50.950;4.100;2023-11-18T12:08:56;4.18;;;2.53;;
52268;SDS011;38224;50.950;4.100;2023-11-18T12:11:21;7.00;;;2.50;;
52268;SDS011;38224;50.950;4.100;2023-11-18T12:14:08;4.80;;;2.72;;
52268;SDS011;38224;50.950;4.100;2023-11-18T12:17:01;3.85;;;2.60;;
52268;SDS011;38224;50.950;4.100;2023-11-18T12:19:33;4.63;;;3.20;;
52268;SDS011;38224;50.950;4.100;2023-11-18T12:22:02;4.18;;;2.55;;
52268;SDS011;38224;50.950;4.100;2023-11-18T12:24:37;4.85;;;2.70;;
52268;SDS011;38224;50.950;4.100;2023-11-18T12:27:03;7.68;;;3.13;;
52268;SDS011;38224;50.950;4.100;2023-11-18T12:29:35;5.63;;;3.20;;
52268;SDS011;38224;50.950;4.100;2023-11-18T12:32:06;6.10;;;3.10;;
52268;SDS011;38224;50.950;4.100;2023-11-18T12:34:52;11.05;;;3.63;;
52268;SDS011;38224;50.950;4.100;2023-11-18T12:37:32;7.50;;;3.10;;
52268;SDS011;38224;50.950;4.100;2023-11-18T12:48:08;9.80;;;4.38;;
52268;SDS011;38224;50.950;4.100;2023-11-18T12:50:38;13.43;;;4.15;;
52268;SDS011;38224;50.950;4.100;2023-11-18T12:53:04;9.65;;;3.22;;
52268;SDS011;38224;50.950;4.100;2023-11-18T12:55:31;11.70;;;3.60;;
52268;SDS011;38224;50.950;4.100;2023-11-18T12:57:59;7.53;;;2.83;;
52268;SDS011;38224;50.950;4.100;2023-11-18T13:00:24;13.27;;;3.88;;
52268;SDS011;38224;50.950;4.100;2023-11-18T13:02:53;7.72;;;2.90;;
52268;SDS011;38224;50.950;4.100;2023-11-18T13:05:19;10.63;;;2.75;;
52268;SDS011;38224;50.950;4.100;2023-11-18T13:07:44;8.88;;;3.10;;
52268;SDS011;38224;50.950;4.100;2023-11-18T13:10:10;6.38;;;2.25;;
52268;SDS011;38224;50.950;4.100;2023-11-18T13:12:40;5.97;;;2.80;;
52268;SDS011;38224;50.950;4.100;2023-11-18T13:15:07;7.15;;;2.53;;
52268;SDS011;38224;50.950;4.100;2023-11-18T13:17:33;7.70;;;2.75;;
52268;SDS011;38224;50.950;4.100;2023-11-18T13:20:05;3.88;;;2.20;;
52268;SDS011;38224;50.950;4.100;2023-11-18T13:22:38;3.95;;;2.15;;
52268;SDS011;38224;50.950;4.100;2023-11-18T13:25:04;6.57;;;2.20;;
52268;SDS011;38224;50.950;4.100;2023-11-18T13:27:30;3.85;;;2.03;;
52268;SDS011;38224;50.950;4.100;2023-11-18T13:29:57;2.85;;;1.85;;
52268;SDS011;38224;50.950;4.100;2023-11-18T13:32:22;2.80;;;2.10;;
52268;SDS011;38224;50.950;4.100;2023-11-18T13:34:48;2.88;;;1.90;;
52268;SDS011;38224;50.950;4.100;2023-11-18T13:37:13;2.33;;;1.90;;
52268;SDS011;38224;50.950;4.100;2023-11-18T13:39:42;2.58;;;1.65;;
52268;SDS011;38224;50.950;4.100;2023-11-18T13:42:23;2.30;;;1.90;;
52268;SDS011;38224;50.950;4.100;2023-11-18T13:44:48;2.90;;;1.58;;
52268;SDS011;38224;50.950;4.100;2023-11-18T13:47:17;3.95;;;2.08;;
52268;SDS011;38224;50.950;4.100;2023-11-18T13:49:42;2.45;;;2.00;;
52268;SDS011;38224;50.950;4.100;2023-11-18T13:52:09;4.93;;;2.40;;
52268;SDS011;38224;50.950;4.100;2023-11-18T13:54:39;5.20;;;1.67;;
52268;SDS011;38224;50.950;4.100;2023-11-18T13:57:05;2.80;;;2.13;;
52268;SDS011;38224;50.950;4.100;2023-11-18T13:59:31;4.35;;;1.65;;
52268;SDS011;38224;50.950;4.100;2023-11-18T14:01:57;2.33;;;1.77;;
52268;SDS011;38224;50.950;4.100;2023-11-18T14:04:33;4.03;;;3.20;;
52268;SDS011;38224;50.950;4.100;2023-11-18T14:06:59;2.10;;;1.90;;
52268;SDS011;38224;50.950;4.100;2023-11-18T14:09:25;3.47;;;2.40;;
52268;SDS011;38224;50.950;4.100;2023-11-18T14:11:51;4.43;;;2.08;;
52268;SDS011;38224;50.950;4.100;2023-11-18T14:14:17;2.40;;;1.90;;
52268;SDS011;38224;50.950;4.100;2023-11-18T14:16:43;3.22;;;2.00;;
52268;SDS011;38224;50.950;4.100;2023-11-18T14:19:08;3.55;;;2.30;;
52268;SDS011;38224;50.950;4.100;2023-11-18T14:21:33;3.20;;;2.10;;
52268;SDS011;38224;50.950;4.100;2023-11-18T14:23:59;2.42;;;1.92;;
52268;SDS011;38224;50.950;4.100;2023-11-18T14:26:28;3.35;;;2.22;;
52268;SDS011;38224;50.950;4.100;2023-11-18T14:28:57;2.17;;;1.80;;
52268;SDS011;38224;50.950;4.100;2023-11-18T14:31:24;3.08;;;2.33;;
52268;SDS011;38224;50.950;4.100;2023-11-18T14:33:50;1.92;;;1.70;;
52268;SDS011;38224;50.950;4.100;2023-11-18T14:36:19;3.45;;;1.77;;
52268;SDS011;38224;50.950;4.100;2023-11-18T14:38:44;2.10;;;1.90;;
52268;SDS011;38224;50.950;4.100;2023-11-18T14:41:10;3.13;;;1.80;;
52268;SDS011;38224;50.950;4.100;2023-11-18T14:43:35;3.53;;;1.92;;
52268;SDS011;38224;50.950;4.100;2023-11-18T14:46:00;3.33;;;2.08;;
52268;SDS011;38224;50.950;4.100;2023-11-18T14:48:26;1.83;;;1.58;;
52268;SDS011;38224;50.950;4.100;2023-11-18T14:50:52;2.08;;;1.73;;
52268;SDS011;38224;50.950;4.100;2023-11-18T14:53:17;2.58;;;1.80;;
52268;SDS011;38224;50.950;4.100;2023-11-18T14:55:42;1.77;;;1.55;;
52268;SDS011;38224;50.950;4.100;2023-11-18T14:58:08;3.17;;;1.85;;
52268;SDS011;38224;50.950;4.100;2023-11-18T15:00:36;2.38;;;1.80;;
52268;SDS011;38224;50.950;4.100;2023-11-18T15:03:02;4.10;;;2.42;;